sensor_id;sensor_type;location;lat;lon;timestamp;P1;durP1;ratioP1;P2;durP2;ratioP2
4686;SDS011;2357;47.316;-1.348;2022-11-23T00:01:28;4.57;;;1.30;;
4686;SDS011;2357;47.316;-1.348;2022-11-23T00:03:57;2.60;;;1.00;;
4686;SDS011;2357;47.316;-1.348;2022-11-23T00:06:28;2.47;;;1.20;;
4686;SDS011;2357;47.316;-1.348;2022-11-23T00:08:54;1.57;;;0.87;;
4686;SDS011;2357;47.316;-1.348;2022-11-23T00:11:20;1.77;;;1.20;;
4686;SDS011;2357;47.316;-1.348;2022-11-23T00:13:47;3.57;;;0.83;;
4686;SDS011;2357;47.316;-1.348;2022-11-23T00:16:14;5.50;;;1.30;;
4686;SDS011;2357;47.316;-1.348;2022-11-23T00:18:41;4.40;;;1.53;;
4686;SDS011;2357;47.316;-1.348;2022-11-23T00:21:11;0.90;;;0.90;;
4686;SDS011;2357;47.316;-1.348;2022-11-23T00:23:38;1.73;;;1.03;;
4686;SDS011;2357;47.316;-1.348;2022-11-23T00:26:04;1.80;;;1.00;;
4686;SDS011;2357;47.316;-1.348;2022-11-23T00:28:30;1.47;;;0.80;;
4686;SDS011;2357;47.316;-1.348;2022-11-23T00:30:56;2.30;;;1.23;;
4686;SDS011;2357;47.316;-1.348;2022-11-23T00:33:22;2.10;;;0.73;;
4686;SDS011;2357;47.316;-1.348;2022-11-23T00:35:57;3.87;;;1.23;;
4686;SDS011;2357;47.316;-1.348;2022-11-23T00:38:27;1.37;;;0.93;;
4686;SDS011;2357;47.316;-1.348;2022-11-23T00:40:59;7.40;;;2.27;;
4686;SDS011;2357;47.316;-1.348;2022-11-23T00:43:26;1.80;;;0.70;;
4686;SDS011;2357;47.316;-1.348;2022-11-23T00:48:32;0.60;;;0.60;;
4686;SDS011;2357;47.316;-1.348;2022-11-23T00:50:59;1.87;;;0.90;;
4686;SDS011;2357;47.316;-1.348;2022-11-23T00:53:26;1.03;;;1.03;;
4686;SDS011;2357;47.316;-1.348;2022-11-23T00:55:52;2.57;;;1.10;;
4686;SDS011;2357;47.316;-1.348;2022-11-23T00:58:18;2.90;;;0.80;;
4686;SDS011;2357;47.316;-1.348;2022-11-23T01:00:44;3.57;;;1.00;;
4686;SDS011;2357;47.316;-1.348;2022-11-23T01:03:09;0.70;;;0.70;;
4686;SDS011;2357;47.316;-1.348;2022-11-23T01:05:36;0.70;;;0.70;;
4686;SDS011;2357;47.316;-1.348;2022-11-23T01:08:02;3.03;;;0.73;;
4686;SDS011;2357;47.316;-1.348;2022-11-23T01:10:29;0.77;;;0.77;;
4686;SDS011;2357;47.316;-1.348;2022-11-23T01:12:55;4.40;;;0.93;;
4686;SDS011;2357;47.316;-1.348;2022-11-23T01:15:21;1.10;;;1.00;;
4686;SDS011;2357;47.316;-1.348;2022-11-23T01:17:46;0.80;;;0.80;;
4686;SDS011;2357;47.316;-1.348;2022-11-23T01:20:12;1.50;;;0.80;;
4686;SDS011;2357;47.316;-1.348;2022-11-23T01:22:37;1.40;;;0.80;;
4686;SDS011;2357;47.316;-1.348;2022-11-23T01:25:03;3.90;;;1.23;;
4686;SDS011;2357;47.316;-1.348;2022-11-23T01:27:29;1.60;;;0.80;;
4686;SDS011;2357;47.316;-1.348;2022-11-23T01:29:55;1.30;;;1.20;;
4686;SDS011;2357;47.316;-1.348;2022-11-23T01:32:20;1.07;;;0.87;;
4686;SDS011;2357;47.316;-1.348;2022-11-23T01:34:46;3.57;;;1.27;;
4686;SDS011;2357;47.316;-1.348;2022-11-23T01:37:11;0.93;;;0.93;;
4686;SDS011;2357;47.316;-1.348;2022-11-23T01:39:37;0.80;;;0.80;;
4686;SDS011;2357;47.316;-1.348;2022-11-23T01:42:03;1.13;;;0.93;;
4686;SDS011;2357;47.316;-1.348;2022-11-23T01:44:32;2.10;;;0.90;;
4686;SDS011;2357;47.316;-1.348;2022-11-23T01:47:00;2.23;;;1.20;;
4686;SDS011;2357;47.316;-1.348;2022-11-23T01:49:48;3.70;;;1.40;;
4686;SDS011;2357;47.316;-1.348;2022-11-23T01:52:16;0.87;;;0.83;;
4686;SDS011;2357;47.316;-1.348;2022-11-23T01:54:45;0.60;;;0.60;;
4686;SDS011;2357;47.316;-1.348;2022-11-23T01:57:22;1.30;;;0.77;;
4686;SDS011;2357;47.316;-1.348;2022-11-23T01:59:53;2.50;;;1.13;;
4686;SDS011;2357;47.316;-1.348;2022-11-23T02:02:20;1.37;;;1.03;;
4686;SDS011;2357;47.316;-1.348;2022-11-23T02:04:46;1.60;;;0.77;;
4686;SDS011;2357;47.316;-1.348;2022-11-23T02:07:15;4.53;;;0.80;;
4686;SDS011;2357;47.316;-1.348;2022-11-23T02:09:42;1.17;;;1.03;;
4686;SDS011;2357;47.316;-1.348;2022-11-23T02:12:12;15.47;;;1.00;;
4686;SDS011;2357;47.316;-1.348;2022-11-23T02:14:38;0.80;;;0.80;;
4686;SDS011;2357;47.316;-1.348;2022-11-23T02:17:05;1.83;;;0.83;;
4686;SDS011;2357;47.316;-1.348;2022-11-23T02:19:44;1.90;;;1.03;;
4686;SDS011;2357;47.316;-1.348;2022-11-23T02:22:13;1.10;;;1.10;;
4686;SDS011;2357;47.316;-1.348;2022-11-23T02:24:54;1.23;;;0.90;;
4686;SDS011;2357;47.316;-1.348;2022-11-23T02:27:20;1.07;;;1.00;;
4686;SDS011;2357;47.316;-1.348;2022-11-23T02:29:47;1.17;;;1.00;;
4686;SDS011;2357;47.316;-1.348;2022-11-23T02:32:18;7.40;;;1.60;;
4686;SDS011;2357;47.316;-1.348;2022-11-23T02:34:47;2.00;;;1.20;;
4686;SDS011;2357;47.316;-1.348;2022-11-23T02:37:13;1.83;;;1.17;;
4686;SDS011;2357;47.316;-1.348;2022-11-23T02:39:41;2.33;;;0.90;;
4686;SDS011;2357;47.316;-1.348;2022-11-23T02:42:12;1.30;;;1.20;;
4686;SDS011;2357;47.316;-1.348;2022-11-23T02:47:45;1.00;;;1.00;;
4686;SDS011;2357;47.316;-1.348;2022-11-23T02:50:13;4.20;;;1.23;;
4686;SDS011;2357;47.316;-1.348;2022-11-23T02:52:39;3.07;;;1.30;;
4686;SDS011;2357;47.316;-1.348;2022-11-23T02:55:04;1.63;;;1.53;;
4686;SDS011;2357;47.316;-1.348;2022-11-23T02:57:30;3.00;;;1.30;;
4686;SDS011;2357;47.316;-1.348;2022-11-23T02:59:56;1.67;;;1.20;;
4686;SDS011;2357;47.316;-1.348;2022-11-23T03:02:21;1.83;;;1.73;;
4686;SDS011;2357;47.316;-1.348;2022-11-23T03:04:47;2.40;;;1.00;;
4686;SDS011;2357;47.316;-1.348;2022-11-23T03:07:12;2.80;;;1.27;;
4686;SDS011;2357;47.316;-1.348;2022-11-23T03:09:38;2.20;;;1.70;;
4686;SDS011;2357;47.316;-1.348;2022-11-23T03:12:04;8.33;;;2.77;;
4686;SDS011;2357;47.316;-1.348;2022-11-23T03:14:29;2.30;;;1.40;;
4686;SDS011;2357;47.316;-1.348;2022-11-23T03:16:55;3.23;;;1.50;;
4686;SDS011;2357;47.316;-1.348;2022-11-23T03:19:20;1.50;;;1.40;;
4686;SDS011;2357;47.316;-1.348;2022-11-23T03:21:46;2.03;;;1.40;;
4686;SDS011;2357;47.316;-1.348;2022-11-23T03:24:12;1.50;;;1.40;;
4686;SDS011;2357;47.316;-1.348;2022-11-23T03:26:37;1.40;;;1.37;;
4686;SDS011;2357;47.316;-1.348;2022-11-23T03:29:03;2.23;;;2.00;;
4686;SDS011;2357;47.316;-1.348;2022-11-23T03:31:29;1.40;;;1.40;;
4686;SDS011;2357;47.316;-1.348;2022-11-23T03:33:54;1.70;;;1.60;;
4686;SDS011;2357;47.316;-1.348;2022-11-23T03:36:20;2.70;;;1.87;;
4686;SDS011;2357;47.316;-1.348;2022-11-23T03:38:45;2.60;;;1.70;;
4686;SDS011;2357;47.316;-1.348;2022-11-23T03:41:11;2.00;;;1.90;;
4686;SDS011;2357;47.316;-1.348;2022-11-23T03:43:37;1.40;;;1.40;;
4686;SDS011;2357;47.316;-1.348;2022-11-23T03:46:02;5.67;;;1.90;;
4686;SDS011;2357;47.316;-1.348;2022-11-23T03:48:28;1.97;;;1.87;;
4686;SDS011;2357;47.316;-1.348;2022-11-23T03:50:53;2.47;;;2.00;;
4686;SDS011;2357;47.316;-1.348;2022-11-23T03:53:19;1.60;;;1.50;;
4686;SDS011;2357;47.316;-1.348;2022-11-23T03:55:45;2.00;;;1.90;;
4686;SDS011;2357;47.316;-1.348;2022-11-23T03:58:11;2.90;;;2.70;;
4686;SDS011;2357;47.316;-1.348;2022-11-23T04:00:36;2.27;;;1.93;;
4686;SDS011;2357;47.316;-1.348;2022-11-23T04:03:02;2.17;;;2.07;;
4686;SDS011;2357;47.316;-1.348;2022-11-23T04:05:28;2.50;;;2.10;;
4686;SDS011;2357;47.316;-1.348;2022-11-23T04:07:54;6.30;;;2.47;;
4686;SDS011;2357;47.316;-1.348;2022-11-23T04:10:19;2.20;;;2.10;;
4686;SDS011;2357;47.316;-1.348;2022-11-23T04:12:47;2.83;;;2.63;;
4686;SDS011;2357;47.316;-1.348;2022-11-23T04:15:15;1.80;;;1.70;;
4686;SDS011;2357;47.316;-1.348;2022-11-23T04:17:40;3.03;;;2.73;;
4686;SDS011;2357;47.316;-1.348;2022-11-23T04:20:06;2.93;;;2.73;;
4686;SDS011;2357;47.316;-1.348;2022-11-23T04:22:32;2.90;;;2.70;;
4686;SDS011;2357;47.316;-1.348;2022-11-23T04:24:57;6.43;;;2.20;;
4686;SDS011;2357;47.316;-1.348;2022-11-23T04:27:23;2.33;;;2.23;;
4686;SDS011;2357;47.316;-1.348;2022-11-23T04:29:49;3.30;;;3.10;;
4686;SDS011;2357;47.316;-1.348;2022-11-23T04:32:14;3.33;;;3.13;;
4686;SDS011;2357;47.316;-1.348;2022-11-23T04:34:40;2.97;;;2.77;;
4686;SDS011;2357;47.316;-1.348;2022-11-23T04:37:05;5.80;;;3.30;;
4686;SDS011;2357;47.316;-1.348;2022-11-23T04:39:31;2.90;;;2.70;;
4686;SDS011;2357;47.316;-1.348;2022-11-23T04:41:57;4.00;;;3.17;;
4686;SDS011;2357;47.316;-1.348;2022-11-23T04:44:22;3.40;;;3.10;;
4686;SDS011;2357;47.316;-1.348;2022-11-23T04:46:48;4.77;;;3.07;;
4686;SDS011;2357;47.316;-1.348;2022-11-23T04:49:14;3.00;;;2.80;;
4686;SDS011;2357;47.316;-1.348;2022-11-23T04:51:40;2.83;;;2.63;;
4686;SDS011;2357;47.316;-1.348;2022-11-23T04:54:06;3.33;;;2.50;;
4686;SDS011;2357;47.316;-1.348;2022-11-23T04:56:31;2.90;;;2.70;;
4686;SDS011;2357;47.316;-1.348;2022-11-23T04:58:57;3.70;;;2.53;;
4686;SDS011;2357;47.316;-1.348;2022-11-23T05:01:23;4.40;;;2.83;;
4686;SDS011;2357;47.316;-1.348;2022-11-23T05:03:48;5.07;;;3.50;;
4686;SDS011;2357;47.316;-1.348;2022-11-23T05:06:14;3.80;;;2.73;;
4686;SDS011;2357;47.316;-1.348;2022-11-23T05:08:39;2.67;;;2.47;;
4686;SDS011;2357;47.316;-1.348;2022-11-23T05:11:06;2.20;;;2.10;;
4686;SDS011;2357;47.316;-1.348;2022-11-23T05:13:31;2.73;;;2.40;;
4686;SDS011;2357;47.316;-1.348;2022-11-23T05:15:57;3.50;;;2.23;;
4686;SDS011;2357;47.316;-1.348;2022-11-23T05:18:23;3.30;;;2.60;;
4686;SDS011;2357;47.316;-1.348;2022-11-23T05:20:48;5.23;;;2.33;;
4686;SDS011;2357;47.316;-1.348;2022-11-23T05:23:14;4.70;;;3.00;;
4686;SDS011;2357;47.316;-1.348;2022-11-23T05:25:40;2.90;;;2.60;;
4686;SDS011;2357;47.316;-1.348;2022-11-23T05:28:05;6.40;;;2.87;;
4686;SDS011;2357;47.316;-1.348;2022-11-23T05:30:31;3.60;;;2.90;;
4686;SDS011;2357;47.316;-1.348;2022-11-23T05:33:00;7.07;;;2.87;;
4686;SDS011;2357;47.316;-1.348;2022-11-23T05:35:27;2.83;;;2.30;;
4686;SDS011;2357;47.316;-1.348;2022-11-23T05:37:53;7.27;;;3.47;;
4686;SDS011;2357;47.316;-1.348;2022-11-23T05:40:18;3.20;;;2.67;;
4686;SDS011;2357;47.316;-1.348;2022-11-23T05:42:44;20.43;;;2.87;;
4686;SDS011;2357;47.316;-1.348;2022-11-23T05:45:09;5.07;;;2.90;;
4686;SDS011;2357;47.316;-1.348;2022-11-23T05:47:35;13.60;;;2.60;;
4686;SDS011;2357;47.316;-1.348;2022-11-23T05:50:01;5.20;;;2.27;;
4686;SDS011;2357;47.316;-1.348;2022-11-23T05:52:26;7.63;;;2.80;;
4686;SDS011;2357;47.316;-1.348;2022-11-23T05:54:52;3.40;;;3.17;;
4686;SDS011;2357;47.316;-1.348;2022-11-23T05:57:18;11.27;;;3.27;;
4686;SDS011;2357;47.316;-1.348;2022-11-23T05:59:44;8.17;;;3.00;;
4686;SDS011;2357;47.316;-1.348;2022-11-23T06:02:10;14.23;;;3.03;;
4686;SDS011;2357;47.316;-1.348;2022-11-23T06:04:35;3.67;;;2.60;;
4686;SDS011;2357;47.316;-1.348;2022-11-23T06:07:01;11.30;;;2.83;;
4686;SDS011;2357;47.316;-1.348;2022-11-23T06:09:27;6.80;;;2.70;;
4686;SDS011;2357;47.316;-1.348;2022-11-23T06:11:52;9.93;;;2.90;;
4686;SDS011;2357;47.316;-1.348;2022-11-23T06:14:18;16.90;;;3.50;;
4686;SDS011;2357;47.316;-1.348;2022-11-23T06:16:44;11.67;;;2.60;;
4686;SDS011;2357;47.316;-1.348;2022-11-23T06:19:09;22.17;;;3.90;;
4686;SDS011;2357;47.316;-1.348;2022-11-23T06:21:35;11.00;;;3.03;;
4686;SDS011;2357;47.316;-1.348;2022-11-23T06:24:00;23.50;;;3.20;;
4686;SDS011;2357;47.316;-1.348;2022-11-23T06:26:26;28.27;;;3.80;;
4686;SDS011;2357;47.316;-1.348;2022-11-23T06:28:52;28.50;;;3.90;;
4686;SDS011;2357;47.316;-1.348;2022-11-23T06:31:18;21.93;;;2.90;;
4686;SDS011;2357;47.316;-1.348;2022-11-23T06:33:43;53.37;;;4.83;;
4686;SDS011;2357;47.316;-1.348;2022-11-23T06:36:09;38.43;;;5.63;;
4686;SDS011;2357;47.316;-1.348;2022-11-23T06:38:35;35.57;;;4.07;;
4686;SDS011;2357;47.316;-1.348;2022-11-23T06:41:02;21.23;;;3.70;;
4686;SDS011;2357;47.316;-1.348;2022-11-23T06:43:28;29.87;;;4.60;;
4686;SDS011;2357;47.316;-1.348;2022-11-23T06:45:54;28.87;;;3.70;;
4686;SDS011;2357;47.316;-1.348;2022-11-23T06:48:21;33.57;;;3.80;;
4686;SDS011;2357;47.316;-1.348;2022-11-23T06:50:46;34.10;;;4.00;;
4686;SDS011;2357;47.316;-1.348;2022-11-23T06:53:12;41.00;;;5.60;;
4686;SDS011;2357;47.316;-1.348;2022-11-23T06:55:38;37.63;;;4.53;;
4686;SDS011;2357;47.316;-1.348;2022-11-23T06:58:04;26.40;;;4.20;;
4686;SDS011;2357;47.316;-1.348;2022-11-23T07:00:30;23.37;;;3.07;;
4686;SDS011;2357;47.316;-1.348;2022-11-23T07:02:57;40.57;;;4.60;;
4686;SDS011;2357;47.316;-1.348;2022-11-23T07:05:24;37.87;;;4.60;;
4686;SDS011;2357;47.316;-1.348;2022-11-23T07:07:50;34.13;;;3.30;;
4686;SDS011;2357;47.316;-1.348;2022-11-23T07:10:16;29.53;;;3.00;;
4686;SDS011;2357;47.316;-1.348;2022-11-23T07:12:42;23.70;;;2.93;;
4686;SDS011;2357;47.316;-1.348;2022-11-23T07:15:08;30.23;;;5.00;;
4686;SDS011;2357;47.316;-1.348;2022-11-23T07:17:37;20.33;;;3.20;;
4686;SDS011;2357;47.316;-1.348;2022-11-23T07:20:04;17.03;;;2.23;;
4686;SDS011;2357;47.316;-1.348;2022-11-23T07:22:32;21.90;;;2.73;;
4686;SDS011;2357;47.316;-1.348;2022-11-23T07:24:58;23.43;;;2.57;;
4686;SDS011;2357;47.316;-1.348;2022-11-23T07:27:23;19.23;;;2.40;;
4686;SDS011;2357;47.316;-1.348;2022-11-23T07:29:49;19.00;;;2.43;;
4686;SDS011;2357;47.316;-1.348;2022-11-23T07:32:14;22.40;;;2.20;;
4686;SDS011;2357;47.316;-1.348;2022-11-23T07:34:40;14.87;;;1.57;;
4686;SDS011;2357;47.316;-1.348;2022-11-23T07:37:06;6.43;;;1.63;;
4686;SDS011;2357;47.316;-1.348;2022-11-23T07:39:32;20.23;;;3.97;;
4686;SDS011;2357;47.316;-1.348;2022-11-23T07:41:57;10.37;;;1.57;;
4686;SDS011;2357;47.316;-1.348;2022-11-23T07:44:23;19.13;;;3.07;;
4686;SDS011;2357;47.316;-1.348;2022-11-23T07:46:51;10.67;;;1.33;;
4686;SDS011;2357;47.316;-1.348;2022-11-23T07:49:17;18.33;;;2.40;;
4686;SDS011;2357;47.316;-1.348;2022-11-23T07:51:43;10.97;;;1.50;;
4686;SDS011;2357;47.316;-1.348;2022-11-23T07:54:08;7.13;;;1.37;;
4686;SDS011;2357;47.316;-1.348;2022-11-23T07:56:34;8.77;;;1.30;;
4686;SDS011;2357;47.316;-1.348;2022-11-23T07:59:00;15.83;;;2.70;;
4686;SDS011;2357;47.316;-1.348;2022-11-23T08:01:25;10.07;;;1.17;;
4686;SDS011;2357;47.316;-1.348;2022-11-23T08:03:51;11.80;;;2.20;;
4686;SDS011;2357;47.316;-1.348;2022-11-23T08:06:16;7.80;;;2.00;;
4686;SDS011;2357;47.316;-1.348;2022-11-23T08:08:42;13.07;;;2.00;;
4686;SDS011;2357;47.316;-1.348;2022-11-23T08:11:08;13.83;;;2.00;;
4686;SDS011;2357;47.316;-1.348;2022-11-23T08:13:35;21.87;;;1.50;;
4686;SDS011;2357;47.316;-1.348;2022-11-23T08:16:01;13.30;;;1.60;;
4686;SDS011;2357;47.316;-1.348;2022-11-23T08:18:27;14.40;;;2.22;;
4686;SDS011;2357;47.316;-1.348;2022-11-23T08:20:53;19.80;;;3.00;;
4686;SDS011;2357;47.316;-1.348;2022-11-23T08:23:18;18.73;;;1.90;;
4686;SDS011;2357;47.316;-1.348;2022-11-23T08:25:45;5.63;;;1.33;;
4686;SDS011;2357;47.316;-1.348;2022-11-23T08:28:11;13.83;;;3.67;;
4686;SDS011;2357;47.316;-1.348;2022-11-23T08:30:36;14.20;;;2.00;;
4686;SDS011;2357;47.316;-1.348;2022-11-23T08:33:06;12.00;;;2.00;;
4686;SDS011;2357;47.316;-1.348;2022-11-23T08:35:36;6.93;;;1.57;;
4686;SDS011;2357;47.316;-1.348;2022-11-23T08:38:05;11.47;;;2.60;;
4686;SDS011;2357;47.316;-1.348;2022-11-23T08:40:32;17.27;;;2.43;;
4686;SDS011;2357;47.316;-1.348;2022-11-23T08:42:59;11.07;;;2.27;;
4686;SDS011;2357;47.316;-1.348;2022-11-23T08:45:24;10.90;;;1.80;;
4686;SDS011;2357;47.316;-1.348;2022-11-23T08:47:51;10.93;;;1.93;;
4686;SDS011;2357;47.316;-1.348;2022-11-23T08:50:17;22.83;;;2.43;;
4686;SDS011;2357;47.316;-1.348;2022-11-23T08:52:43;19.17;;;2.00;;
4686;SDS011;2357;47.316;-1.348;2022-11-23T08:55:09;13.43;;;2.50;;
4686;SDS011;2357;47.316;-1.348;2022-11-23T08:57:35;18.80;;;2.83;;
4686;SDS011;2357;47.316;-1.348;2022-11-23T09:00:01;25.47;;;2.70;;
4686;SDS011;2357;47.316;-1.348;2022-11-23T09:02:28;12.83;;;1.90;;
4686;SDS011;2357;47.316;-1.348;2022-11-23T09:04:53;11.43;;;1.57;;
4686;SDS011;2357;47.316;-1.348;2022-11-23T09:07:19;13.43;;;2.00;;
4686;SDS011;2357;47.316;-1.348;2022-11-23T09:09:45;23.30;;;2.30;;
4686;SDS011;2357;47.316;-1.348;2022-11-23T09:12:10;12.90;;;2.50;;
4686;SDS011;2357;47.316;-1.348;2022-11-23T09:14:36;21.37;;;2.90;;
4686;SDS011;2357;47.316;-1.348;2022-11-23T09:17:02;20.23;;;2.57;;
4686;SDS011;2357;47.316;-1.348;2022-11-23T09:19:28;14.20;;;2.33;;
4686;SDS011;2357;47.316;-1.348;2022-11-23T09:21:54;15.73;;;2.20;;
4686;SDS011;2357;47.316;-1.348;2022-11-23T09:24:19;11.00;;;1.40;;
4686;SDS011;2357;47.316;-1.348;2022-11-23T09:26:46;25.33;;;2.07;;
4686;SDS011;2357;47.316;-1.348;2022-11-23T09:29:12;10.03;;;1.90;;
4686;SDS011;2357;47.316;-1.348;2022-11-23T09:31:37;24.83;;;2.60;;
4686;SDS011;2357;47.316;-1.348;2022-11-23T09:34:03;10.37;;;2.07;;
4686;SDS011;2357;47.316;-1.348;2022-11-23T09:36:29;18.50;;;2.27;;
4686;SDS011;2357;47.316;-1.348;2022-11-23T09:38:55;28.37;;;1.87;;
4686;SDS011;2357;47.316;-1.348;2022-11-23T09:41:39;10.83;;;2.63;;
4686;SDS011;2357;47.316;-1.348;2022-11-23T09:49:21;11.77;;;2.40;;
4686;SDS011;2357;47.316;-1.348;2022-11-23T09:52:13;14.90;;;2.70;;
4686;SDS011;2357;47.316;-1.348;2022-11-23T09:54:43;8.07;;;1.73;;
4686;SDS011;2357;47.316;-1.348;2022-11-23T09:57:11;13.00;;;2.30;;
4686;SDS011;2357;47.316;-1.348;2022-11-23T09:59:51;20.73;;;2.50;;
4686;SDS011;2357;47.316;-1.348;2022-11-23T10:02:28;19.63;;;2.30;;
4686;SDS011;2357;47.316;-1.348;2022-11-23T10:04:56;14.67;;;3.17;;
4686;SDS011;2357;47.316;-1.348;2022-11-23T10:15:23;15.77;;;3.07;;
4686;SDS011;2357;47.316;-1.348;2022-11-23T10:21:03;15.87;;;2.60;;
4686;SDS011;2357;47.316;-1.348;2022-11-23T10:23:54;19.63;;;2.47;;
4686;SDS011;2357;47.316;-1.348;2022-11-23T10:26:31;19.53;;;2.57;;
4686;SDS011;2357;47.316;-1.348;2022-11-23T10:29:08;18.03;;;2.43;;
4686;SDS011;2357;47.316;-1.348;2022-11-23T10:31:42;23.97;;;2.80;;
4686;SDS011;2357;47.316;-1.348;2022-11-23T10:34:12;16.47;;;3.83;;
4686;SDS011;2357;47.316;-1.348;2022-11-23T10:36:41;18.20;;;3.73;;
4686;SDS011;2357;47.316;-1.348;2022-11-23T10:39:13;17.67;;;2.17;;
4686;SDS011;2357;47.316;-1.348;2022-11-23T10:41:48;31.77;;;3.80;;
4686;SDS011;2357;47.316;-1.348;2022-11-23T10:46:49;28.60;;;4.13;;
4686;SDS011;2357;47.316;-1.348;2022-11-23T10:49:17;26.30;;;3.37;;
4686;SDS011;2357;47.316;-1.348;2022-11-23T10:51:54;16.27;;;3.10;;
4686;SDS011;2357;47.316;-1.348;2022-11-23T10:56:52;22.27;;;3.53;;
4686;SDS011;2357;47.316;-1.348;2022-11-23T10:59:25;30.73;;;3.17;;
4686;SDS011;2357;47.316;-1.348;2022-11-23T11:02:00;25.27;;;2.97;;
4686;SDS011;2357;47.316;-1.348;2022-11-23T11:04:47;22.40;;;3.73;;
4686;SDS011;2357;47.316;-1.348;2022-11-23T11:09:57;23.43;;;3.60;;
4686;SDS011;2357;47.316;-1.348;2022-11-23T11:12:24;13.90;;;3.57;;
4686;SDS011;2357;47.316;-1.348;2022-11-23T11:17:25;17.77;;;3.70;;
4686;SDS011;2357;47.316;-1.348;2022-11-23T11:19:52;22.00;;;3.53;;
4686;SDS011;2357;47.316;-1.348;2022-11-23T11:22:31;20.80;;;4.10;;
4686;SDS011;2357;47.316;-1.348;2022-11-23T11:25:03;10.63;;;2.83;;
4686;SDS011;2357;47.316;-1.348;2022-11-23T11:27:30;21.37;;;3.43;;
4686;SDS011;2357;47.316;-1.348;2022-11-23T11:30:01;8.80;;;2.23;;
4686;SDS011;2357;47.316;-1.348;2022-11-23T11:35:13;16.33;;;2.43;;
4686;SDS011;2357;47.316;-1.348;2022-11-23T11:38:16;16.90;;;3.33;;
4686;SDS011;2357;47.316;-1.348;2022-11-23T11:40:57;8.70;;;1.27;;
4686;SDS011;2357;47.316;-1.348;2022-11-23T11:43:48;20.30;;;2.73;;
4686;SDS011;2357;47.316;-1.348;2022-11-23T11:46:41;12.53;;;2.63;;
4686;SDS011;2357;47.316;-1.348;2022-11-23T11:49:12;9.67;;;2.00;;
4686;SDS011;2357;47.316;-1.348;2022-11-23T11:51:48;11.47;;;2.57;;
4686;SDS011;2357;47.316;-1.348;2022-11-23T11:54:36;10.33;;;3.13;;
4686;SDS011;2357;47.316;-1.348;2022-11-23T11:57:15;10.43;;;1.60;;
4686;SDS011;2357;47.316;-1.348;2022-11-23T11:59:52;23.67;;;2.93;;
4686;SDS011;2357;47.316;-1.348;2022-11-23T12:02:22;12.10;;;2.87;;
4686;SDS011;2357;47.316;-1.348;2022-11-23T12:07:34;15.90;;;3.20;;
4686;SDS011;2357;47.316;-1.348;2022-11-23T12:12:35;22.57;;;2.43;;
4686;SDS011;2357;47.316;-1.348;2022-11-23T12:15:02;28.20;;;2.63;;
4686;SDS011;2357;47.316;-1.348;2022-11-23T12:17:36;14.73;;;2.90;;
4686;SDS011;2357;47.316;-1.348;2022-11-23T12:20:09;13.70;;;4.00;;
4686;SDS011;2357;47.316;-1.348;2022-11-23T12:27:58;10.33;;;1.90;;
4686;SDS011;2357;47.316;-1.348;2022-11-23T12:38:50;18.27;;;3.07;;
4686;SDS011;2357;47.316;-1.348;2022-11-23T12:41:44;21.77;;;3.93;;
4686;SDS011;2357;47.316;-1.348;2022-11-23T12:55:26;22.07;;;3.50;;
4686;SDS011;2357;47.316;-1.348;2022-11-23T13:01:15;31.90;;;3.50;;
4686;SDS011;2357;47.316;-1.348;2022-11-23T13:04:40;11.97;;;3.00;;
4686;SDS011;2357;47.316;-1.348;2022-11-23T13:13:41;17.97;;;2.67;;
4686;SDS011;2357;47.316;-1.348;2022-11-23T13:15:52;30.43;;;3.50;;
4686;SDS011;2357;47.316;-1.348;2022-11-23T13:21:10;23.20;;;4.50;;
4686;SDS011;2357;47.316;-1.348;2022-11-23T13:24:00;15.40;;;2.47;;
4686;SDS011;2357;47.316;-1.348;2022-11-23T13:26:27;28.00;;;3.70;;
4686;SDS011;2357;47.316;-1.348;2022-11-23T13:28:55;23.27;;;2.90;;
4686;SDS011;2357;47.316;-1.348;2022-11-23T13:33:54;18.43;;;3.87;;
4686;SDS011;2357;47.316;-1.348;2022-11-23T13:39:58;24.50;;;3.70;;
4686;SDS011;2357;47.316;-1.348;2022-11-23T13:42:01;23.87;;;3.60;;
4686;SDS011;2357;47.316;-1.348;2022-11-23T13:44:28;22.30;;;3.83;;
4686;SDS011;2357;47.316;-1.348;2022-11-23T13:49:48;23.50;;;3.60;;
4686;SDS011;2357;47.316;-1.348;2022-11-23T13:57:37;25.53;;;3.10;;
4686;SDS011;2357;47.316;-1.348;2022-11-23T14:00:42;22.57;;;2.67;;
4686;SDS011;2357;47.316;-1.348;2022-11-23T14:06:20;10.90;;;2.50;;
4686;SDS011;2357;47.316;-1.348;2022-11-23T14:20:27;5.97;;;1.43;;
4686;SDS011;2357;47.316;-1.348;2022-11-23T14:36:22;10.50;;;1.80;;
4686;SDS011;2357;47.316;-1.348;2022-11-23T14:39:15;13.33;;;1.57;;
4686;SDS011;2357;47.316;-1.348;2022-11-23T14:41:57;9.60;;;1.83;;
4686;SDS011;2357;47.316;-1.348;2022-11-23T14:44:26;13.97;;;2.17;;
4686;SDS011;2357;47.316;-1.348;2022-11-23T14:47:04;12.70;;;1.83;;
4686;SDS011;2357;47.316;-1.348;2022-11-23T14:49:31;16.50;;;2.20;;
4686;SDS011;2357;47.316;-1.348;2022-11-23T14:51:56;17.47;;;2.27;;
4686;SDS011;2357;47.316;-1.348;2022-11-23T14:54:23;18.23;;;4.53;;
4686;SDS011;2357;47.316;-1.348;2022-11-23T14:56:50;25.83;;;3.93;;
4686;SDS011;2357;47.316;-1.348;2022-11-23T14:59:26;8.10;;;2.57;;
4686;SDS011;2357;47.316;-1.348;2022-11-23T15:04:29;12.80;;;1.70;;
4686;SDS011;2357;47.316;-1.348;2022-11-23T15:09:50;18.70;;;2.57;;
4686;SDS011;2357;47.316;-1.348;2022-11-23T15:12:28;13.40;;;3.00;;
4686;SDS011;2357;47.316;-1.348;2022-11-23T15:15:15;21.70;;;3.73;;
4686;SDS011;2357;47.316;-1.348;2022-11-23T15:17:57;13.10;;;2.20;;
4686;SDS011;2357;47.316;-1.348;2022-11-23T15:20:31;29.13;;;3.73;;
4686;SDS011;2357;47.316;-1.348;2022-11-23T15:23:01;22.40;;;3.30;;
4686;SDS011;2357;47.316;-1.348;2022-11-23T15:25:27;11.97;;;2.20;;
4686;SDS011;2357;47.316;-1.348;2022-11-23T15:27:54;10.60;;;2.47;;
4686;SDS011;2357;47.316;-1.348;2022-11-23T15:30:21;29.83;;;3.00;;
4686;SDS011;2357;47.316;-1.348;2022-11-23T15:33:02;16.30;;;3.40;;
4686;SDS011;2357;47.316;-1.348;2022-11-23T15:35:34;18.20;;;3.77;;
4686;SDS011;2357;47.316;-1.348;2022-11-23T15:38:02;11.37;;;2.60;;
4686;SDS011;2357;47.316;-1.348;2022-11-23T15:40:31;26.20;;;4.90;;
4686;SDS011;2357;47.316;-1.348;2022-11-23T15:42:59;25.07;;;2.57;;
4686;SDS011;2357;47.316;-1.348;2022-11-23T15:48:18;26.63;;;3.10;;
4686;SDS011;2357;47.316;-1.348;2022-11-23T15:50:51;25.30;;;2.90;;
4686;SDS011;2357;47.316;-1.348;2022-11-23T15:56:21;21.73;;;3.40;;
4686;SDS011;2357;47.316;-1.348;2022-11-23T16:01:51;23.27;;;4.23;;
4686;SDS011;2357;47.316;-1.348;2022-11-23T16:04:28;21.60;;;3.10;;
4686;SDS011;2357;47.316;-1.348;2022-11-23T16:06:54;25.20;;;4.43;;
4686;SDS011;2357;47.316;-1.348;2022-11-23T16:09:38;18.57;;;3.07;;
4686;SDS011;2357;47.316;-1.348;2022-11-23T16:14:54;23.10;;;4.20;;
4686;SDS011;2357;47.316;-1.348;2022-11-23T16:17:46;27.00;;;4.10;;
4686;SDS011;2357;47.316;-1.348;2022-11-23T16:20:13;33.17;;;5.00;;
4686;SDS011;2357;47.316;-1.348;2022-11-23T16:22:41;41.97;;;4.37;;
4686;SDS011;2357;47.316;-1.348;2022-11-23T16:27:44;31.27;;;5.00;;
4686;SDS011;2357;47.316;-1.348;2022-11-23T16:30:21;37.07;;;4.77;;
4686;SDS011;2357;47.316;-1.348;2022-11-23T16:32:48;20.07;;;4.20;;
4686;SDS011;2357;47.316;-1.348;2022-11-23T16:35:15;24.97;;;4.97;;
4686;SDS011;2357;47.316;-1.348;2022-11-23T16:37:42;27.50;;;5.03;;
4686;SDS011;2357;47.316;-1.348;2022-11-23T16:40:08;18.17;;;4.40;;
4686;SDS011;2357;47.316;-1.348;2022-11-23T16:42:34;24.93;;;3.77;;
4686;SDS011;2357;47.316;-1.348;2022-11-23T16:45:00;24.60;;;4.90;;
4686;SDS011;2357;47.316;-1.348;2022-11-23T16:47:25;28.33;;;4.33;;
4686;SDS011;2357;47.316;-1.348;2022-11-23T16:49:52;33.00;;;3.53;;
4686;SDS011;2357;47.316;-1.348;2022-11-23T16:52:19;24.70;;;4.30;;
4686;SDS011;2357;47.316;-1.348;2022-11-23T16:54:46;40.47;;;5.73;;
4686;SDS011;2357;47.316;-1.348;2022-11-23T16:57:26;18.67;;;4.37;;
4686;SDS011;2357;47.316;-1.348;2022-11-23T16:59:54;28.53;;;4.87;;
4686;SDS011;2357;47.316;-1.348;2022-11-23T17:02:20;31.20;;;4.47;;
4686;SDS011;2357;47.316;-1.348;2022-11-23T17:04:46;31.30;;;5.10;;
4686;SDS011;2357;47.316;-1.348;2022-11-23T17:07:12;36.67;;;5.60;;
4686;SDS011;2357;47.316;-1.348;2022-11-23T17:09:37;33.03;;;5.00;;
4686;SDS011;2357;47.316;-1.348;2022-11-23T17:12:04;40.07;;;5.90;;
4686;SDS011;2357;47.316;-1.348;2022-11-23T17:14:33;38.97;;;5.37;;
4686;SDS011;2357;47.316;-1.348;2022-11-23T17:17:03;37.03;;;6.40;;
4686;SDS011;2357;47.316;-1.348;2022-11-23T17:19:29;33.10;;;6.13;;
4686;SDS011;2357;47.316;-1.348;2022-11-23T17:21:55;31.27;;;6.63;;